Time;durP1;ratioP1;P1;durP2;ratioP2;P2;SDS_P1;SDS_P2;PMS_P1;PMS_P2;Temp;Humidity;BMP_temperature;BMP_pressure;BME280_temperature;BME280_humidity;BME280_pressure;Samples;Min_cycle;Max_cycle;Signal;HPM_P1;HPM_P2
2021/09/10 00:01:28;;;;;;;10.15;6.43;;;;;;;16.13;84.60;98598.28;5035054;28;20033;-72
2021/09/10 00:03:53;;;;;;;9.27;6.78;;;;;;;16.02;84.99;98593.69;5035145;28;20033;-72
2021/09/10 00:06:18;;;;;;;10.63;6.13;;;;;;;16.16;84.54;98616.88;5035832;28;20029;-72
2021/09/10 00:08:44;;;;;;;10.18;6.15;;;;;;;16.12;84.28;98607.53;5041193;28;20530;-72
2021/09/10 00:11:09;;;;;;;8.63;6.35;;;;;;;16.13;84.22;98622.84;5054405;28;20021;-72
2021/09/10 00:13:35;;;;;;;11.32;6.72;;;;;;;16.05;85.15;98617.78;5026619;28;20033;-72
2021/09/10 00:16:00;;;;;;;8.60;6.95;;;;;;;15.89;85.62;98612.00;5017470;28;20029;-72
2021/09/10 00:18:26;;;;;;;9.40;6.93;;;;;;;15.85;86.51;98612.72;5046456;28;20109;-72
2021/09/10 00:20:51;;;;;;;9.00;6.18;;;;;;;15.74;87.39;98612.50;5034555;28;20396;-72
2021/09/10 00:23:17;;;;;;;9.93;6.63;;;;;;;15.56;87.62;98608.06;5017551;28;20052;-72
2021/09/10 00:25:42;;;;;;;11.23;6.60;;;;;;;15.62;87.60;98616.34;5035385;28;20391;-71
2021/09/10 00:28:07;;;;;;;10.32;6.10;;;;;;;15.59;87.85;98614.91;5034776;28;20068;-72
2021/09/10 00:30:32;;;;;;;10.15;6.70;;;;;;;15.53;87.80;98613.13;5035326;28;20104;-72
2021/09/10 00:32:58;;;;;;;9.93;6.55;;;;;;;15.63;88.18;98628.91;5035553;28;20037;-72
2021/09/10 00:35:23;;;;;;;11.57;6.72;;;;;;;15.64;87.83;98606.00;5034347;28;20040;-72
2021/09/10 00:37:48;;;;;;;9.48;6.82;;;;;;;15.59;88.02;98608.63;5028128;28;20079;-71
2021/09/10 00:40:14;;;;;;;12.98;6.40;;;;;;;15.58;87.87;98613.25;5036068;28;20064;-72
2021/09/10 00:42:39;;;;;;;12.30;7.47;;;;;;;15.61;87.84;98615.50;5016806;28;20025;-72
2021/09/10 00:45:06;;;;;;;10.75;6.93;;;;;;;15.69;88.07;98623.34;5034532;28;20025;-72
2021/09/10 00:47:31;;;;;;;11.05;6.60;;;;;;;15.69;87.97;98633.41;5042135;28;20429;-73
2021/09/10 00:49:57;;;;;;;10.43;6.55;;;;;;;15.52;88.12;98600.59;5034713;28;20029;-72
2021/09/10 00:52:22;;;;;;;9.98;7.30;;;;;;;15.57;88.67;98620.59;5033331;28;20048;-72
2021/09/10 00:54:47;;;;;;;13.32;7.05;;;;;;;15.48;87.94;98597.53;5026746;28;20037;-72
2021/09/10 00:57:14;;;;;;;9.60;6.22;;;;;;;15.54;88.27;98620.28;5032505;28;20029;-71
2021/09/10 00:59:40;;;;;;;10.45;6.80;;;;;;;15.55;89.01;98624.63;5034526;28;20097;-72
2021/09/10 01:02:05;;;;;;;12.07;6.85;;;;;;;15.78;88.11;98612.88;5036292;28;20116;-72
2021/09/10 01:04:31;;;;;;;8.75;6.78;;;;;;;15.70;87.39;98610.53;5036679;28;20025;-72
2021/09/10 01:06:57;;;;;;;8.70;6.30;;;;;;;15.66;88.02;98601.97;5033756;28;20025;-72
2021/09/10 01:09:23;;;;;;;9.32;6.10;;;;;;;15.61;87.85;98617.38;5016740;28;20029;-72
2021/09/10 01:11:52;;;;;;;11.20;7.05;;;;;;;15.57;88.17;98627.97;5014274;28;20021;-72
2021/09/10 01:14:19;;;;;;;11.85;7.13;;;;;;;15.52;88.77;98623.22;5024903;28;20055;-72
2021/09/10 01:16:46;;;;;;;9.27;6.38;;;;;;;15.43;88.75;98608.31;5034559;28;20029;-72
2021/09/10 01:19:26;;;;;;;10.48;6.43;;;;;;;15.38;89.17;98619.09;5035277;28;20033;-72
2021/09/10 01:21:55;;;;;;;11.10;6.72;;;;;;;15.39;89.37;98626.22;5033090;28;20036;-72
2021/09/10 01:24:34;;;;;;;9.45;6.78;;;;;;;15.28;89.64;98611.53;5034779;28;20032;-72
2021/09/10 01:27:00;;;;;;;8.90;6.75;;;;;;;15.34;89.99;98615.19;5036336;28;20021;-71
2021/09/10 01:29:26;;;;;;;8.73;6.70;;;;;;;15.40;89.72;98619.66;5034065;28;20539;-72
2021/09/10 01:31:51;;;;;;;12.38;6.45;;;;;;;15.28;89.11;98616.16;5034280;28;20113;-72
2021/09/10 01:34:17;;;;;;;9.45;6.00;;;;;;;15.32;89.45;98620.03;5038286;28;20021;-72
2021/09/10 01:36:42;;;;;;;10.48;6.95;;;;;;;15.27;89.96;98622.66;5033754;28;20406;-71
2021/09/10 01:39:07;;;;;;;12.55;6.50;;;;;;;15.21;90.32;98626.34;5015426;28;20033;-72
2021/09/10 01:41:33;;;;;;;13.32;7.00;;;;;;;15.17;89.85;98612.38;5045565;28;20067;-72
2021/09/10 01:43:58;;;;;;;9.93;6.75;;;;;;;15.18;89.94;98610.47;5033316;28;20033;-71
2021/09/10 01:46:23;;;;;;;9.50;5.93;;;;;;;15.21;89.28;98626.34;5014949;28;20467;-72
2021/09/10 01:48:50;;;;;;;10.90;6.32;;;;;;;15.23;89.53;98633.22;5033958;28;20083;-71
2021/09/10 01:51:16;;;;;;;8.77;6.70;;;;;;;15.18;90.61;98632.28;5036654;28;20028;-72
2021/09/10 01:53:41;;;;;;;9.55;7.18;;;;;;;15.09;90.59;98624.47;5031544;28;20033;-71
2021/09/10 01:56:07;;;;;;;9.93;6.28;;;;;;;15.10;90.77;98636.19;5029945;28;20026;-71
2021/09/10 01:58:32;;;;;;;12.02;7.03;;;;;;;15.11;91.34;98632.38;5033347;28;20533;-70
2021/09/10 02:00:57;;;;;;;8.70;6.68;;;;;;;15.02;91.47;98621.00;5031568;28;20061;-71
2021/09/10 02:03:23;;;;;;;12.40;6.95;;;;;;;15.07;91.53;98640.22;5013546;28;20431;-71
2021/09/10 02:05:49;;;;;;;9.27;7.45;;;;;;;15.02;91.82;98626.47;5018954;28;20105;-70
2021/09/10 02:08:14;;;;;;;10.95;7.28;;;;;;;15.06;91.73;98630.38;5032593;28;20036;-72
2021/09/10 02:10:40;;;;;;;8.95;6.97;;;;;;;15.03;91.55;98619.94;5033408;28;20029;-70
2021/09/10 02:13:05;;;;;;;12.32;7.05;;;;;;;15.21;90.67;98621.72;5014754;28;20025;-69
2021/09/10 02:15:31;;;;;;;10.35;7.00;;;;;;;15.25;90.04;98628.34;5031314;28;20025;-71
2021/09/10 02:17:56;;;;;;;10.88;6.85;;;;;;;15.22;89.55;98617.09;5033055;28;20040;-70
2021/09/10 02:20:22;;;;;;;10.23;7.65;;;;;;;15.16;89.50;98618.03;5032963;28;20041;-70
2021/09/10 02:22:47;;;;;;;9.85;7.35;;;;;;;15.22;90.17;98627.97;5036616;28;20676;-71
2021/09/10 02:25:12;;;;;;;9.20;7.15;;;;;;;15.28;89.76;98632.50;5033681;28;20126;-70
2021/09/10 02:27:38;;;;;;;10.13;7.82;;;;;;;15.22;89.79;98636.16;5034205;28;20029;-70
2021/09/10 02:30:04;;;;;;;12.50;7.68;;;;;;;15.09;89.98;98616.28;5034750;28;20025;-71
2021/09/10 02:32:29;;;;;;;11.43;8.07;;;;;;;15.01;90.61;98615.78;5034231;28;20029;-70
2021/09/10 02:34:55;;;;;;;9.00;6.85;;;;;;;15.05;91.18;98622.44;5038292;28;20035;-70
2021/09/10 02:37:21;;;;;;;11.60;7.47;;;;;;;15.01;91.39;98630.25;5039351;28;20498;-70
2021/09/10 02:39:47;;;;;;;9.50;7.35;;;;;;;15.00;91.28;98630.50;5033799;28;20025;-70
2021/09/10 02:42:12;;;;;;;9.40;7.20;;;;;;;14.98;91.42;98627.97;5041833;28;20029;-71
2021/09/10 02:44:38;;;;;;;10.15;7.38;;;;;;;14.95;92.17;98616.75;5021848;28;20071;-71
2021/09/10 02:47:03;;;;;;;9.43;7.47;;;;;;;15.03;91.45;98625.38;5051935;28;20068;-70
2021/09/10 02:49:28;;;;;;;9.93;6.97;;;;;;;14.99;91.40;98624.22;5016440;28;20071;-70
2021/09/10 02:51:54;;;;;;;8.70;6.90;;;;;;;15.03;91.42;98622.66;5040525;28;20020;-71
2021/09/10 02:54:19;;;;;;;12.35;7.88;;;;;;;15.12;91.08;98623.16;5032729;28;20056;-70
2021/09/10 02:56:44;;;;;;;9.68;7.18;;;;;;;15.17;90.81;98619.69;5033346;28;20071;-71
2021/09/10 02:59:10;;;;;;;8.35;6.80;;;;;;;15.27;89.91;98628.09;5033789;28;20067;-70
2021/09/10 03:01:35;;;;;;;9.52;6.50;;;;;;;15.16;90.35;98637.13;5033582;28;20033;-70
2021/09/10 03:04:01;;;;;;;10.45;7.07;;;;;;;14.94;90.57;98624.09;5032246;28;20021;-70
2021/09/10 03:06:26;;;;;;;7.30;5.70;;;;;;;15.08;90.64;98639.13;5045740;28;20022;-70
2021/09/10 03:08:51;;;;;;;13.50;6.53;;;;;;;14.96;90.86;98637.47;5032078;28;20030;-70
2021/09/10 03:11:16;;;;;;;11.63;6.90;;;;;;;14.93;91.53;98635.22;5032951;28;20021;-72
2021/09/10 03:13:42;;;;;;;9.88;7.47;;;;;;;14.93;91.50;98641.47;5032283;28;20048;-70
2021/09/10 03:16:07;;;;;;;14.63;7.82;;;;;;;14.90;91.83;98623.72;5050176;28;20029;-70
2021/09/10 03:18:33;;;;;;;12.35;7.40;;;;;;;14.82;92.01;98607.72;5035665;28;20450;-71
2021/09/10 03:20:58;;;;;;;10.55;7.78;;;;;;;14.89;91.04;98624.78;5012451;28;20030;-71
2021/09/10 03:23:24;;;;;;;14.80;8.38;;;;;;;14.85;91.90;98617.31;5027292;28;20029;-70
2021/09/10 03:25:49;;;;;;;14.68;7.18;;;;;;;14.93;91.56;98619.69;5032177;28;20043;-70
2021/09/10 03:28:14;;;;;;;9.88;6.50;;;;;;;15.01;91.12;98621.25;5036756;28;20108;-70
2021/09/10 03:30:40;;;;;;;10.40;6.47;;;;;;;14.91;90.34;98613.69;5042751;28;20487;-70
2021/09/10 03:33:05;;;;;;;9.15;6.65;;;;;;;15.03;90.39;98619.94;5030512;28;20037;-71
2021/09/10 03:35:30;;;;;;;12.70;6.55;;;;;;;14.97;90.12;98618.16;5033193;28;20034;-70
2021/09/10 03:37:56;;;;;;;10.07;6.72;;;;;;;14.94;89.92;98615.91;5015024;28;20029;-70
2021/09/10 03:40:21;;;;;;;6.18;5.32;;;;;;;14.93;90.00;98625.13;5041662;28;20133;-70
2021/09/10 03:42:47;;;;;;;8.27;6.20;;;;;;;14.88;90.23;98614.13;5030301;28;20053;-71
2021/09/10 03:45:12;;;;;;;10.85;6.75;;;;;;;14.73;90.30;98598.25;5026201;28;20029;-70
2021/09/10 03:47:38;;;;;;;9.50;6.45;;;;;;;14.78;90.53;98601.09;5033357;28;20035;-70
2021/09/10 03:50:04;;;;;;;8.13;6.47;;;;;;;14.74;91.15;98589.00;5033903;28;20102;-70
2021/09/10 03:52:29;;;;;;;8.65;6.63;;;;;;;14.87;91.27;98615.19;5030992;28;20053;-70
2021/09/10 03:54:54;;;;;;;12.05;7.53;;;;;;;14.80;91.22;98599.00;5041130;28;20025;-70
2021/09/10 03:57:20;;;;;;;9.40;7.32;;;;;;;14.83;91.44;98606.69;5035261;28;20455;-70
2021/09/10 03:59:45;;;;;;;17.30;7.03;;;;;;;14.80;92.35;98609.88;5013426;28;20120;-70
2021/09/10 04:02:10;;;;;;;12.95;7.88;;;;;;;14.83;91.85;98603.13;5031169;28;20040;-70
2021/09/10 04:04:35;;;;;;;9.98;7.45;;;;;;;14.77;92.16;98606.78;5031271;28;20430;-70
2021/09/10 04:07:01;;;;;;;14.73;7.68;;;;;;;14.75;92.67;98606.19;5031181;28;20026;-70
2021/09/10 04:09:26;;;;;;;10.38;7.30;;;;;;;14.76;92.39;98597.78;5020311;28;20025;-71
2021/09/10 04:11:52;;;;;;;9.07;6.95;;;;;;;14.83;92.70;98611.31;5031533;28;20033;-70
2021/09/10 04:14:17;;;;;;;12.85;7.35;;;;;;;14.80;91.87;98609.88;5032406;28;20084;-71
2021/09/10 04:16:42;;;;;;;9.77;7.22;;;;;;;14.88;92.17;98595.06;5032465;28;20087;-73
2021/09/10 04:19:08;;;;;;;12.75;7.20;;;;;;;14.87;91.70;98605.13;5029341;28;20403;-70
2021/09/10 04:21:33;;;;;;;9.18;6.82;;;;;;;14.86;91.74;98608.09;5031717;28;20057;-70
2021/09/10 04:23:58;;;;;;;11.73;6.72;;;;;;;14.89;91.93;98613.91;5033014;28;20167;-71
2021/09/10 04:26:24;;;;;;;10.35;7.55;;;;;;;14.86;92.36;98610.81;5035626;28;20467;-70
2021/09/10 04:28:49;;;;;;;11.15;7.72;;;;;;;14.79;93.24;98612.81;5018672;28;20100;-70
2021/09/10 04:31:17;;;;;;;10.10;7.95;;;;;;;14.68;94.11;98612.56;5017094;28;20131;-71
2021/09/10 04:33:43;;;;;;;17.92;8.45;;;;;;;14.62;94.03;98602.63;5036343;28;20402;-70
2021/09/10 04:36:09;;;;;;;11.23;8.15;;;;;;;14.52;94.27;98582.47;5050499;28;20506;-71
2021/09/10 04:38:34;;;;;;;12.40;8.55;;;;;;;14.58;94.88;98606.88;5038089;28;20071;-70
2021/09/10 04:40:59;;;;;;;13.35;8.25;;;;;;;14.60;94.92;98604.75;5034854;28;20113;-71
2021/09/10 04:43:25;;;;;;;10.43;7.75;;;;;;;14.62;94.77;98612.69;5034294;28;20032;-71
2021/09/10 04:45:50;;;;;;;13.32;7.80;;;;;;;14.65;94.24;98613.06;5041089;28;20070;-70
2021/09/10 04:48:15;;;;;;;12.60;8.45;;;;;;;14.63;94.68;98615.16;5033737;28;20033;-70
2021/09/10 04:50:41;;;;;;;12.60;7.82;;;;;;;14.46;95.11;98593.22;5035685;28;20030;-70
2021/09/10 04:53:06;;;;;;;11.50;8.32;;;;;;;14.47;95.53;98594.03;5013657;28;20033;-76
2021/09/10 04:55:32;;;;;;;12.32;8.27;;;;;;;14.63;95.55;98620.63;5016358;28;20116;-76
2021/09/10 04:57:58;;;;;;;11.38;8.68;;;;;;;14.42;95.44;98585.75;5033063;28;20076;-73
2021/09/10 05:00:23;;;;;;;11.80;8.18;;;;;;;14.53;95.53;98597.75;5031418;28;20071;-75
2021/09/10 05:02:48;;;;;;;11.50;8.45;;;;;;;14.44;94.88;98572.75;5031173;28;20482;-74
2021/09/10 05:05:14;;;;;;;10.40;8.32;;;;;;;14.74;94.65;98616.25;5012548;28;20061;-72
2021/09/10 05:07:41;;;;;;;11.18;8.20;;;;;;;14.63;93.91;98600.72;5018880;28;20021;-71
2021/09/10 05:10:07;;;;;;;12.50;8.57;;;;;;;14.87;93.34;98624.19;5006278;28;20025;-73
2021/09/10 05:12:32;;;;;;;11.70;8.20;;;;;;;14.81;92.91;98600.63;5033115;28;20155;-74
2021/09/10 05:14:57;;;;;;;11.95;8.23;;;;;;;14.86;92.24;98608.94;5034307;28;20399;-75
2021/09/10 05:17:23;;;;;;;11.18;7.95;;;;;;;15.03;92.03;98630.84;5033225;28;20079;-72
2021/09/10 05:19:48;;;;;;;12.32;8.95;;;;;;;14.95;91.77;98603.94;5024631;28;20451;-76
2021/09/10 05:22:14;;;;;;;12.80;8.10;;;;;;;15.13;91.09;98624.81;5033948;28;20475;-75
2021/09/10 05:24:39;;;;;;;11.68;8.48;;;;;;;15.13;90.99;98631.06;5022936;28;20433;-73
2021/09/10 05:27:05;;;;;;;9.93;7.68;;;;;;;15.04;91.06;98616.16;5033892;28;20022;-73
2021/09/10 05:29:30;;;;;;;14.70;8.27;;;;;;;15.10;90.65;98611.66;5033849;28;20029;-75
2021/09/10 05:31:56;;;;;;;14.05;8.20;;;;;;;15.20;90.16;98614.63;5033758;28;20357;-74
2021/09/10 05:34:21;;;;;;;14.10;8.23;;;;;;;15.73;87.64;98602.69;5032223;28;20029;-74
2021/09/10 05:36:46;;;;;;;13.90;7.75;;;;;;;16.97;81.01;98622.13;5022650;28;20029;-74
2021/09/10 05:39:12;;;;;;;12.27;7.75;;;;;;;18.15;75.19;98605.38;5027450;28;20034;-76
2021/09/10 05:41:37;;;;;;;12.20;7.43;;;;;;;19.15;70.64;98624.09;5030283;28;20511;-74
2021/09/10 05:44:02;;;;;;;12.75;7.38;;;;;;;19.61;68.89;98627.97;5030869;28;20120;-74
2021/09/10 05:46:28;;;;;;;14.13;7.55;;;;;;;20.19;65.72;98625.19;5024516;28;20020;-73
2021/09/10 05:48:53;;;;;;;10.57;6.80;;;;;;;20.87;63.42;98633.28;5027180;28;20033;-73
2021/09/10 05:51:18;;;;;;;11.13;6.80;;;;;;;21.36;61.28;98629.13;5029247;28;20479;-72
2021/09/10 05:53:44;;;;;;;9.88;6.57;;;;;;;21.89;59.20;98615.78;5020148;28;20033;-73
2021/09/10 05:56:10;;;;;;;10.30;6.57;;;;;;;22.64;57.20;98612.91;5021384;28;20149;-75
2021/09/10 05:58:36;;;;;;;9.52;6.10;;;;;;;23.20;56.14;98614.38;5040858;28;20052;-74
2021/09/10 06:01:01;;;;;;;11.82;5.97;;;;;;;23.60;54.33;98617.81;5039822;28;20420;-73
2021/09/10 06:03:27;;;;;;;13.02;6.50;;;;;;;23.91;53.17;98615.56;5021022;28;20068;-71
2021/09/10 06:05:52;;;;;;;10.10;6.10;;;;;;;24.22;51.92;98613.22;5019214;28;20029;-74
2021/09/10 06:08:17;;;;;;;7.22;5.60;;;;;;;25.17;50.31;98617.88;5035065;28;20032;-74
2021/09/10 06:10:45;;;;;;;10.75;5.50;;;;;;;25.20;49.88;98626.41;5034378;28;20029;-74
2021/09/10 06:13:10;;;;;;;7.50;5.10;;;;;;;24.88;49.51;98618.88;5032377;28;20075;-73
2021/09/10 06:15:36;;;;;;;9.18;6.32;;;;;;;24.95;49.78;98630.41;5032663;28;20022;-73
2021/09/10 06:18:01;;;;;;;7.75;6.00;;;;;;;24.46;51.04;98609.59;5015212;28;20442;-73
2021/09/10 06:20:26;;;;;;;9.93;6.30;;;;;;;25.92;47.85;98616.75;5032809;28;20029;-73
2021/09/10 06:22:52;;;;;;;11.80;6.28;;;;;;;26.50;46.51;98621.56;5032936;28;20021;-73
2021/09/10 06:25:17;;;;;;;10.25;7.18;;;;;;;26.88;45.33;98624.88;5032372;28;20112;-73
2021/09/10 06:27:43;;;;;;;10.23;6.22;;;;;;;27.04;44.53;98624.50;5031441;28;20108;-71
2021/09/10 06:30:09;;;;;;;9.65;6.30;;;;;;;26.84;45.13;98626.63;5020561;28;20072;-73
2021/09/10 06:32:34;;;;;;;9.80;6.70;;;;;;;27.23;44.20;98627.91;5024696;28;20061;-73
2021/09/10 06:35:00;;;;;;;10.88;7.13;;;;;;;27.65;42.90;98628.44;5022991;28;20025;-74
2021/09/10 06:37:25;;;;;;;9.65;6.47;;;;;;;26.87;44.82;98628.75;5003316;28;20601;-73
2021/09/10 06:39:51;;;;;;;10.93;6.72;;;;;;;27.57;43.84;98637.56;5021483;28;20029;-73
2021/09/10 06:42:16;;;;;;;11.60;6.68;;;;;;;27.93;42.37;98636.59;5027792;28;20104;-73
2021/09/10 06:44:42;;;;;;;11.18;7.18;;;;;;;28.15;42.29;98625.38;5024736;28;20120;-73
2021/09/10 06:47:07;;;;;;;8.68;6.85;;;;;;;28.80;41.17;98645.13;5024304;28;20109;-73
2021/09/10 06:49:33;;;;;;;12.77;6.82;;;;;;;28.94;41.76;98634.59;5029697;28;20033;-73
2021/09/10 06:51:58;;;;;;;11.70;6.40;;;;;;;29.59;40.11;98635.50;5024580;28;20109;-73
2021/09/10 06:54:23;;;;;;;9.90;6.15;;;;;;;30.00;39.52;98628.47;5020173;28;20062;-74
2021/09/10 06:56:49;;;;;;;10.18;6.20;;;;;;;30.95;37.60;98632.59;5019034;28;20026;-73
2021/09/10 06:59:18;;;;;;;7.28;5.82;;;;;;;31.18;36.48;98640.59;5025766;28;20091;-73
2021/09/10 07:01:44;;;;;;;7.55;5.30;;;;;;;32.05;35.51;98634.03;5012068;28;20665;-73
2021/09/10 07:04:09;;;;;;;8.98;5.75;;;;;;;31.84;34.91;98636.91;5022484;28;20136;-72
2021/09/10 07:06:35;;;;;;;7.53;5.10;;;;;;;32.32;34.58;98629.69;5021701;28;20014;-73
2021/09/10 07:09:00;;;;;;;8.15;5.53;;;;;;;32.18;34.95;98638.44;5027071;28;20096;-74
2021/09/10 07:11:25;;;;;;;10.60;5.80;;;;;;;32.13;34.42;98637.88;5025412;28;20398;-73
2021/09/10 07:13:50;;;;;;;10.63;5.32;;;;;;;33.31;32.63;98633.03;5025570;28;20022;-73
2021/09/10 07:16:16;;;;;;;8.75;5.45;;;;;;;33.77;32.42;98637.09;5031057;28;20058;-73
2021/09/10 07:18:41;;;;;;;6.72;4.78;;;;;;;34.47;30.81;98644.78;5033729;28;20116;-72
2021/09/10 07:21:07;;;;;;;6.13;4.28;;;;;;;33.64;32.24;98640.31;5032026;28;20032;-72
2021/09/10 07:23:33;;;;;;;6.15;4.72;;;;;;;33.37;32.69;98626.78;5031323;28;20537;-73
2021/09/10 07:26:02;;;;;;;5.30;4.63;;;;;;;31.20;35.74;98646.63;5032091;28;20054;-72
2021/09/10 07:28:29;;;;;;;6.85;6.15;;;;;;;31.40;35.86;98639.41;5031698;28;20033;-72
2021/09/10 07:30:54;;;;;;;6.47;5.22;;;;;;;32.04;35.01;98640.78;5014734;28;20047;-73
2021/09/10 07:33:20;;;;;;;7.53;4.95;;;;;;;32.08;34.03;98633.31;5034409;28;20472;-73
2021/09/10 07:35:45;;;;;;;7.55;5.00;;;;;;;32.04;33.90;98643.56;5039508;28;20041;-73
2021/09/10 07:38:10;;;;;;;6.80;4.75;;;;;;;31.76;34.60;98641.44;5032039;28;20030;-73
2021/09/10 07:40:36;;;;;;;8.27;4.57;;;;;;;32.80;32.64;98625.16;5018878;28;20030;-72
2021/09/10 07:43:01;;;;;;;6.15;4.57;;;;;;;33.33;32.03;98625.06;5035112;28;20080;-74
2021/09/10 07:45:26;;;;;;;9.32;5.07;;;;;;;33.61;31.15;98641.84;5031897;28;20029;-73
2021/09/10 07:47:52;;;;;;;7.50;4.97;;;;;;;33.02;32.27;98642.63;5032997;28;20014;-72
2021/09/10 07:50:17;;;;;;;6.47;4.78;;;;;;;33.89;30.49;98640.97;5017390;28;20422;-74
2021/09/10 07:52:42;;;;;;;12.27;4.60;;;;;;;33.23;31.62;98648.84;5043645;28;20041;-72
2021/09/10 07:55:08;;;;;;;9.98;4.90;;;;;;;33.13;31.81;98632.53;5037935;28;20026;-72
2021/09/10 07:57:34;;;;;;;10.10;5.07;;;;;;;32.71;32.40;98644.09;5032411;28;20052;-72
2021/09/10 07:59:59;;;;;;;11.00;5.10;;;;;;;33.76;31.13;98643.84;5038045;28;20040;-73
2021/09/10 08:02:28;;;;;;;7.50;4.80;;;;;;;34.16;30.18;98628.81;5025463;28;20119;-73
2021/09/10 08:04:55;;;;;;;6.40;4.22;;;;;;;34.82;29.38;98638.38;5040039;28;20025;-72
2021/09/10 08:07:20;;;;;;;8.35;4.68;;;;;;;33.19;31.82;98636.69;5035264;28;20433;-71
2021/09/10 08:09:45;;;;;;;11.10;5.15;;;;;;;33.60;31.14;98645.84;5035903;28;20025;-72
2021/09/10 08:12:11;;;;;;;7.88;4.93;;;;;;;34.25;30.43;98651.91;5044343;28;20052;-72
2021/09/10 08:14:36;;;;;;;11.25;4.82;;;;;;;34.69;29.61;98657.38;5035558;28;20044;-72
2021/09/10 08:17:02;;;;;;;7.32;4.78;;;;;;;33.94;30.76;98655.53;5033949;28;20049;-76
2021/09/10 08:19:27;;;;;;;5.55;4.55;;;;;;;34.17;29.94;98652.94;5036889;28;20518;-75
2021/09/10 08:21:52;;;;;;;7.28;4.30;;;;;;;35.50;28.90;98667.88;5017945;28;20032;-74
2021/09/10 08:24:18;;;;;;;6.70;4.80;;;;;;;34.98;29.23;98674.84;5024942;28;20033;-75
2021/09/10 08:26:43;;;;;;;8.77;4.80;;;;;;;35.65;28.20;98685.06;5034485;28;20017;-74
2021/09/10 08:29:08;;;;;;;5.45;4.30;;;;;;;35.71;28.27;98678.75;5033505;28;20021;-74
2021/09/10 08:31:34;;;;;;;5.13;4.15;;;;;;;35.99;27.94;98672.78;5032656;28;20442;-75
2021/09/10 08:34:00;;;;;;;6.07;4.00;;;;;;;35.46;28.20;98664.16;5033379;28;20040;-74
2021/09/10 08:36:26;;;;;;;4.80;4.30;;;;;;;35.78;28.39;98666.78;5034232;28;20040;-74
2021/09/10 08:38:52;;;;;;;6.20;4.40;;;;;;;35.84;27.49;98675.72;5025490;28;20538;-75
2021/09/10 08:41:22;;;;;;;5.93;4.18;;;;;;;35.48;27.74;98681.50;4999400;28;20041;-75
2021/09/10 08:43:48;;;;;;;7.70;5.00;;;;;;;35.31;28.48;98673.53;5030305;28;20017;-75
2021/09/10 08:46:14;;;;;;;8.82;4.90;;;;;;;36.25;26.94;98679.66;5023677;28;20434;-76
2021/09/10 08:48:44;;;;;;;5.97;4.03;;;;;;;36.95;26.07;98675.47;5017780;28;20021;-74
2021/09/10 08:51:10;;;;;;;5.85;4.13;;;;;;;36.20;27.25;98680.81;5034129;28;20463;-74
2021/09/10 08:53:35;;;;;;;7.50;3.88;;;;;;;35.83;28.04;98676.94;5023534;28;20057;-75
2021/09/10 08:56:00;;;;;;;4.10;3.40;;;;;;;36.75;26.92;98674.81;5034297;28;20403;-76
2021/09/10 08:58:26;;;;;;;4.47;3.38;;;;;;;37.33;25.23;98662.25;5048665;28;20029;-74
2021/09/10 09:00:51;;;;;;;5.70;3.70;;;;;;;35.16;27.01;98669.59;5017752;28;20029;-75
2021/09/10 09:03:17;;;;;;;5.80;3.80;;;;;;;34.74;27.75;98686.34;5033485;28;20041;-76
2021/09/10 09:05:42;;;;;;;3.97;3.17;;;;;;;36.29;27.31;98674.91;5035013;28;20029;-76
2021/09/10 09:08:13;;;;;;;5.57;3.47;;;;;;;35.42;27.33;98670.91;5034921;28;20051;-76
2021/09/10 09:11:00;;;;;;;4.63;3.38;;;;;;;34.15;29.55;98683.38;5034799;28;20526;-76
2021/09/10 09:13:40;;;;;;;5.22;3.17;;;;;;;35.80;27.91;98678.50;5033429;28;20041;-75
2021/09/10 09:16:16;;;;;;;5.75;3.30;;;;;;;36.94;25.60;98671.00;5033697;28;20029;-76
2021/09/10 09:18:43;;;;;;;5.60;3.15;;;;;;;38.09;25.27;98664.63;5035524;28;20021;-75
2021/09/10 09:21:09;;;;;;;4.47;2.95;;;;;;;39.35;24.33;98663.38;5024995;28;20037;-76
2021/09/10 09:23:35;;;;;;;3.67;3.20;;;;;;;39.61;23.57;98669.91;5017170;28;20072;-76
2021/09/10 09:26:00;;;;;;;4.20;3.13;;;;;;;38.86;24.39;98653.47;5016755;28;20103;-76
2021/09/10 09:28:28;;;;;;;3.72;2.88;;;;;;;39.09;23.68;98652.34;5035071;28;20029;-76
2021/09/10 09:31:04;;;;;;;3.47;2.85;;;;;;;38.36;25.03;98670.91;5016315;28;20535;-76
2021/09/10 09:33:35;;;;;;;4.85;3.08;;;;;;;37.56;24.32;98667.78;5032303;28;20078;-77
2021/09/10 09:36:02;;;;;;;4.90;3.25;;;;;;;38.14;24.10;98652.97;5017852;28;20032;-75
2021/09/10 09:38:30;;;;;;;4.03;3.47;;;;;;;38.83;23.97;98667.56;5033354;28;20033;-76
2021/09/10 09:41:02;;;;;;;4.30;3.28;;;;;;;38.48;23.98;98666.97;5015941;28;20116;-75
2021/09/10 09:43:40;;;;;;;5.53;3.50;;;;;;;38.47;24.12;98673.84;5013076;28;20040;-76
2021/09/10 09:46:08;;;;;;;4.65;3.42;;;;;;;39.23;24.04;98672.22;5016981;28;20029;-76
2021/09/10 09:48:37;;;;;;;5.95;3.28;;;;;;;39.69;22.73;98668.72;5015312;28;20033;-73
2021/09/10 09:51:04;;;;;;;3.60;2.97;;;;;;;39.91;23.54;98678.09;5033344;28;20041;-76
2021/09/10 09:53:29;;;;;;;5.72;3.30;;;;;;;39.85;22.74;98677.69;5036208;28;20079;-74
2021/09/10 09:55:56;;;;;;;4.75;3.63;;;;;;;40.02;22.44;98672.44;5032936;28;20037;-74
2021/09/10 09:58:21;;;;;;;5.95;3.50;;;;;;;39.19;24.14;98669.38;5021211;28;20032;-73
2021/09/10 10:00:47;;;;;;;7.28;3.50;;;;;;;39.70;23.78;98676.00;5004495;28;20386;-73
2021/09/10 10:03:13;;;;;;;6.47;3.45;;;;;;;38.91;23.56;98661.59;5033038;28;20037;-74
2021/09/10 10:06:08;;;;;;;4.45;3.42;;;;;;;35.99;26.54;98674.78;5033152;28;20048;-73
2021/09/10 10:08:41;;;;;;;4.90;3.88;;;;;;;35.62;27.52;98671.72;5011658;28;20041;-73
2021/09/10 10:11:14;;;;;;;8.02;3.67;;;;;;;37.34;26.01;98675.19;5022198;28;20086;-73
2021/09/10 10:13:40;;;;;;;5.57;3.85;;;;;;;38.96;23.42;98663.22;5040121;28;20059;-73
2021/09/10 10:16:06;;;;;;;6.75;3.60;;;;;;;38.61;23.98;98663.81;5030674;28;20044;-73
2021/09/10 10:18:40;;;;;;;6.35;3.72;;;;;;;38.31;23.83;98659.19;5029471;28;20018;-74
2021/09/10 10:21:12;;;;;;;4.32;3.58;;;;;;;38.41;23.72;98655.63;5022031;28;20037;-73
2021/09/10 10:23:46;;;;;;;8.13;3.60;;;;;;;37.29;25.07;98664.22;5029283;28;20084;-73
2021/09/10 10:26:14;;;;;;;4.55;3.47;;;;;;;38.20;24.04;98658.25;5030015;28;20025;-73
2021/09/10 10:28:45;;;;;;;5.50;3.70;;;;;;;36.77;25.23;98657.50;5029339;28;20083;-73
2021/09/10 10:31:13;;;;;;;6.53;3.72;;;;;;;36.44;28.13;98656.22;5029289;28;20025;-73
2021/09/10 10:33:48;;;;;;;6.13;3.72;;;;;;;35.97;28.25;98658.28;5011231;28;20083;-73
2021/09/10 10:36:36;;;;;;;6.25;3.72;;;;;;;37.69;26.20;98652.16;5029564;28;20053;-73
2021/09/10 10:39:31;;;;;;;7.60;3.65;;;;;;;39.14;24.85;98646.31;5005168;28;20035;-73
2021/09/10 10:42:02;;;;;;;7.53;3.58;;;;;;;39.54;23.42;98650.06;5030709;28;20112;-73
2021/09/10 10:44:33;;;;;;;8.43;3.60;;;;;;;38.32;23.99;98641.00;5044670;28;20025;-73
2021/09/10 10:47:16;;;;;;;3.95;3.35;;;;;;;38.38;25.45;98650.72;5027917;28;20025;-73
2021/09/10 10:49:49;;;;;;;6.55;3.78;;;;;;;37.18;26.28;98646.34;5028095;28;20029;-73
2021/09/10 10:52:35;;;;;;;6.20;4.18;;;;;;;33.14;30.37;98656.56;5029411;28;20052;-73
2021/09/10 10:55:19;;;;;;;7.15;4.13;;;;;;;32.82;31.61;98638.81;5029774;28;20129;-73
2021/09/10 10:57:51;;;;;;;5.05;3.80;;;;;;;33.06;32.29;98629.53;5036604;28;20029;-73
2021/09/10 11:00:29;;;;;;;8.52;4.22;;;;;;;31.82;33.64;98642.03;5028615;28;20573;-73
2021/09/10 11:03:12;;;;;;;4.70;4.20;;;;;;;33.38;32.02;98645.25;5032341;28;20037;-73
2021/09/10 11:05:45;;;;;;;6.35;3.88;;;;;;;34.73;29.75;98646.19;5046054;28;20047;-73
2021/09/10 11:08:15;;;;;;;7.35;3.90;;;;;;;35.71;29.63;98644.97;5035081;28;20076;-73
2021/09/10 11:10:41;;;;;;;7.10;4.18;;;;;;;36.30;28.76;98625.81;5029336;28;20029;-73
2021/09/10 11:13:07;;;;;;;5.72;4.05;;;;;;;35.44;28.71;98635.59;5020554;28;20067;-73
2021/09/10 11:15:37;;;;;;;5.75;4.28;;;;;;;33.98;30.63;98638.78;5025845;28;20048;-73
2021/09/10 11:18:08;;;;;;;6.00;4.18;;;;;;;34.58;29.76;98633.81;5041189;28;20026;-73
2021/09/10 11:20:48;;;;;;;6.68;4.30;;;;;;;33.71;31.55;98640.50;5034309;28;20045;-72
2021/09/10 11:23:24;;;;;;;8.85;4.57;;;;;;;31.91;33.12;98634.31;5043247;28;20040;-73
2021/09/10 11:25:54;;;;;;;6.03;4.18;;;;;;;33.92;30.58;98634.63;5028752;28;20025;-75
2021/09/10 11:28:21;;;;;;;5.45;3.85;;;;;;;34.33;29.59;98618.38;5016646;28;20407;-74